San Fernando de Henares, Spain
Current Conditions -  °F | °C
As of 5:30 AM on Sunday 26 Oct 2014 (Local Time) from LEMD Reporting Station
Clear Clear  
Wind Chill: 52°   Ceiling: Unl
Heat Index: 52°   Visibility: 6mi
Dew Point: 45°   Wind: 5mph
Humidity: 76%   Direction: 330°NNW
Pressure: 30.21"   Gusts: NA
Location:  40.42°N, 3.53°W
Report Text: LEMD 260330Z 33004KT CAVOK 11/07 Q1023 NOSIG
Loading
Personal Weather Stations






























Interactive Weather Map
Tropical Storm Tracking
New forecast layout! Learn more

10-Day Weather Forecast

Advertisements
Track Severe Weather on mobile